sensor_id;sensor_type;location;lat;lon;timestamp;temperature;humidity
55083;DHT22;40978;52.850;6.506;2022-07-15T00:00:37;11.60;99.90
55083;DHT22;40978;52.850;6.506;2022-07-15T00:03:02;11.60;99.90
55083;DHT22;40978;52.850;6.506;2022-07-15T00:05:28;11.60;99.90
55083;DHT22;40978;52.850;6.506;2022-07-15T00:07:54;11.50;99.90
55083;DHT22;40978;52.850;6.506;2022-07-15T00:10:20;11.50;99.90
55083;DHT22;40978;52.850;6.506;2022-07-15T00:12:50;11.50;99.90
55083;DHT22;40978;52.850;6.506;2022-07-15T00:15:18;11.60;99.90
55083;DHT22;40978;52.850;6.506;2022-07-15T00:17:44;11.60;99.90
55083;DHT22;40978;52.850;6.506;2022-07-15T00:20:11;11.60;99.90
55083;DHT22;40978;52.850;6.506;2022-07-15T00:22:38;11.60;99.90
55083;DHT22;40978;52.850;6.506;2022-07-15T00:25:04;11.80;99.90
55083;DHT22;40978;52.850;6.506;2022-07-15T00:27:30;11.80;99.90
55083;DHT22;40978;52.850;6.506;2022-07-15T00:29:56;11.90;99.90
55083;DHT22;40978;52.850;6.506;2022-07-15T00:32:22;12.00;99.90
55083;DHT22;40978;52.850;6.506;2022-07-15T00:34:47;12.00;99.90
55083;DHT22;40978;52.850;6.506;2022-07-15T00:37:13;12.10;99.90
55083;DHT22;40978;52.850;6.506;2022-07-15T00:39:39;12.10;99.90
55083;DHT22;40978;52.850;6.506;2022-07-15T00:42:05;12.10;99.90
55083;DHT22;40978;52.850;6.506;2022-07-15T00:44:31;12.20;99.90
55083;DHT22;40978;52.850;6.506;2022-07-15T00:46:57;12.30;99.90
55083;DHT22;40978;52.850;6.506;2022-07-15T00:49:25;12.30;99.90
55083;DHT22;40978;52.850;6.506;2022-07-15T00:51:52;12.30;99.90
55083;DHT22;40978;52.850;6.506;2022-07-15T00:54:23;12.40;99.90
55083;DHT22;40978;52.850;6.506;2022-07-15T00:56:55;12.40;99.90
55083;DHT22;40978;52.850;6.506;2022-07-15T00:59:23;12.40;99.90
55083;DHT22;40978;52.850;6.506;2022-07-15T01:01:51;12.40;99.90
55083;DHT22;40978;52.850;6.506;2022-07-15T01:04:18;12.50;99.90
55083;DHT22;40978;52.850;6.506;2022-07-15T01:06:45;12.50;99.90
55083;DHT22;40978;52.850;6.506;2022-07-15T01:09:11;12.50;99.90
55083;DHT22;40978;52.850;6.506;2022-07-15T01:11:37;12.50;99.90
55083;DHT22;40978;52.850;6.506;2022-07-15T01:14:03;12.50;99.90
55083;DHT22;40978;52.850;6.506;2022-07-15T01:16:30;12.60;99.90
55083;DHT22;40978;52.850;6.506;2022-07-15T01:18:56;12.60;99.90
55083;DHT22;40978;52.850;6.506;2022-07-15T01:21:22;12.60;99.90
55083;DHT22;40978;52.850;6.506;2022-07-15T01:23:48;12.60;99.90
55083;DHT22;40978;52.850;6.506;2022-07-15T01:26:14;12.60;99.90
55083;DHT22;40978;52.850;6.506;2022-07-15T01:28:40;12.60;99.90
55083;DHT22;40978;52.850;6.506;2022-07-15T01:31:07;12.70;99.90
55083;DHT22;40978;52.850;6.506;2022-07-15T01:33:33;12.70;99.90
55083;DHT22;40978;52.850;6.506;2022-07-15T01:35:59;12.70;99.90
55083;DHT22;40978;52.850;6.506;2022-07-15T01:38:27;12.80;99.90
55083;DHT22;40978;52.850;6.506;2022-07-15T01:40:54;12.80;99.90
55083;DHT22;40978;52.850;6.506;2022-07-15T01:43:19;12.80;99.90
55083;DHT22;40978;52.850;6.506;2022-07-15T01:45:45;12.80;99.90
55083;DHT22;40978;52.850;6.506;2022-07-15T01:48:12;12.90;99.90
55083;DHT22;40978;52.850;6.506;2022-07-15T01:50:58;12.90;99.90
55083;DHT22;40978;52.850;6.506;2022-07-15T01:53:25;12.90;99.90
55083;DHT22;40978;52.850;6.506;2022-07-15T01:55:51;13.00;99.90
55083;DHT22;40978;52.850;6.506;2022-07-15T01:58:17;12.90;99.90
55083;DHT22;40978;52.850;6.506;2022-07-15T02:00:43;12.90;99.90
55083;DHT22;40978;52.850;6.506;2022-07-15T02:03:09;12.90;99.90
55083;DHT22;40978;52.850;6.506;2022-07-15T02:05:35;12.90;99.90
55083;DHT22;40978;52.850;6.506;2022-07-15T02:08:01;12.90;99.90
55083;DHT22;40978;52.850;6.506;2022-07-15T02:10:28;12.80;99.90
55083;DHT22;40978;52.850;6.506;2022-07-15T02:13:10;12.80;99.90
55083;DHT22;40978;52.850;6.506;2022-07-15T02:15:37;12.80;99.90
55083;DHT22;40978;52.850;6.506;2022-07-15T02:18:05;12.70;99.90
55083;DHT22;40978;52.850;6.506;2022-07-15T02:20:31;12.70;99.90
55083;DHT22;40978;52.850;6.506;2022-07-15T02:22:57;12.70;99.90
55083;DHT22;40978;52.850;6.506;2022-07-15T02:25:29;12.70;99.90
55083;DHT22;40978;52.850;6.506;2022-07-15T02:27:59;12.60;99.90
55083;DHT22;40978;52.850;6.506;2022-07-15T02:30:28;12.60;99.90
55083;DHT22;40978;52.850;6.506;2022-07-15T02:32:54;12.60;99.90
55083;DHT22;40978;52.850;6.506;2022-07-15T02:35:22;12.50;99.90
55083;DHT22;40978;52.850;6.506;2022-07-15T02:37:48;12.50;99.90
55083;DHT22;40978;52.850;6.506;2022-07-15T02:40:13;12.40;99.90
55083;DHT22;40978;52.850;6.506;2022-07-15T02:42:39;12.40;99.90
55083;DHT22;40978;52.850;6.506;2022-07-15T02:45:06;12.30;99.90
55083;DHT22;40978;52.850;6.506;2022-07-15T02:47:32;12.20;99.90
55083;DHT22;40978;52.850;6.506;2022-07-15T02:49:57;12.20;99.90
55083;DHT22;40978;52.850;6.506;2022-07-15T02:52:23;12.10;99.90
55083;DHT22;40978;52.850;6.506;2022-07-15T02:54:49;12.10;99.90
55083;DHT22;40978;52.850;6.506;2022-07-15T02:57:15;12.00;99.90
55083;DHT22;40978;52.850;6.506;2022-07-15T02:59:41;12.00;99.90
55083;DHT22;40978;52.850;6.506;2022-07-15T03:02:06;12.00;99.90
55083;DHT22;40978;52.850;6.506;2022-07-15T03:04:32;11.90;99.90
55083;DHT22;40978;52.850;6.506;2022-07-15T03:06:58;11.90;99.90
55083;DHT22;40978;52.850;6.506;2022-07-15T03:09:23;11.80;99.90
55083;DHT22;40978;52.850;6.506;2022-07-15T03:11:49;11.70;99.90
55083;DHT22;40978;52.850;6.506;2022-07-15T03:14:15;11.70;99.90
55083;DHT22;40978;52.850;6.506;2022-07-15T03:16:40;11.60;99.90
55083;DHT22;40978;52.850;6.506;2022-07-15T03:19:07;11.60;99.90
55083;DHT22;40978;52.850;6.506;2022-07-15T03:21:34;11.50;99.90
55083;DHT22;40978;52.850;6.506;2022-07-15T03:23:59;11.50;99.90
55083;DHT22;40978;52.850;6.506;2022-07-15T03:26:25;11.50;99.90
55083;DHT22;40978;52.850;6.506;2022-07-15T03:28:51;11.40;99.90
55083;DHT22;40978;52.850;6.506;2022-07-15T03:31:16;11.40;99.90
55083;DHT22;40978;52.850;6.506;2022-07-15T03:33:42;11.40;99.90
55083;DHT22;40978;52.850;6.506;2022-07-15T03:36:08;11.30;99.90
55083;DHT22;40978;52.850;6.506;2022-07-15T03:38:34;11.30;99.90
55083;DHT22;40978;52.850;6.506;2022-07-15T03:41:00;11.30;99.90
55083;DHT22;40978;52.850;6.506;2022-07-15T03:43:25;11.30;99.90
55083;DHT22;40978;52.850;6.506;2022-07-15T03:45:55;11.30;99.90
55083;DHT22;40978;52.850;6.506;2022-07-15T03:48:21;11.30;99.90
55083;DHT22;40978;52.850;6.506;2022-07-15T03:50:47;11.30;99.90
55083;DHT22;40978;52.850;6.506;2022-07-15T03:53:13;11.30;99.90
55083;DHT22;40978;52.850;6.506;2022-07-15T03:55:39;11.30;99.90
55083;DHT22;40978;52.850;6.506;2022-07-15T03:58:05;11.30;99.90
55083;DHT22;40978;52.850;6.506;2022-07-15T04:00:31;11.20;99.90
55083;DHT22;40978;52.850;6.506;2022-07-15T04:02:57;11.20;99.90
55083;DHT22;40978;52.850;6.506;2022-07-15T04:05:23;11.30;99.90
55083;DHT22;40978;52.850;6.506;2022-07-15T04:07:48;11.20;99.90
55083;DHT22;40978;52.850;6.506;2022-07-15T04:10:15;11.20;99.90
55083;DHT22;40978;52.850;6.506;2022-07-15T04:12:41;11.30;99.90
55083;DHT22;40978;52.850;6.506;2022-07-15T04:15:07;11.30;99.90
55083;DHT22;40978;52.850;6.506;2022-07-15T04:17:33;11.30;99.90
55083;DHT22;40978;52.850;6.506;2022-07-15T04:19:59;11.30;99.90
55083;DHT22;40978;52.850;6.506;2022-07-15T04:22:25;11.30;99.90
55083;DHT22;40978;52.850;6.506;2022-07-15T04:24:51;11.30;99.90
55083;DHT22;40978;52.850;6.506;2022-07-15T04:27:17;11.30;99.90
55083;DHT22;40978;52.850;6.506;2022-07-15T04:29:43;11.40;99.90
55083;DHT22;40978;52.850;6.506;2022-07-15T04:32:08;11.40;99.90
55083;DHT22;40978;52.850;6.506;2022-07-15T04:34:34;11.50;99.90
55083;DHT22;40978;52.850;6.506;2022-07-15T04:37:00;11.60;99.90
55083;DHT22;40978;52.850;6.506;2022-07-15T04:39:25;11.70;99.90
55083;DHT22;40978;52.850;6.506;2022-07-15T04:41:51;11.80;99.90
55083;DHT22;40978;52.850;6.506;2022-07-15T04:44:18;11.80;99.90
55083;DHT22;40978;52.850;6.506;2022-07-15T04:46:44;11.90;99.90
55083;DHT22;40978;52.850;6.506;2022-07-15T04:49:09;12.10;99.90
55083;DHT22;40978;52.850;6.506;2022-07-15T04:51:54;12.30;99.90
55083;DHT22;40978;52.850;6.506;2022-07-15T04:54:19;12.60;99.90
55083;DHT22;40978;52.850;6.506;2022-07-15T04:56:45;12.90;99.90
55083;DHT22;40978;52.850;6.506;2022-07-15T04:59:11;13.10;99.90
55083;DHT22;40978;52.850;6.506;2022-07-15T05:01:36;13.10;99.90
55083;DHT22;40978;52.850;6.506;2022-07-15T05:04:02;13.30;99.90
55083;DHT22;40978;52.850;6.506;2022-07-15T05:06:28;13.30;99.90
55083;DHT22;40978;52.850;6.506;2022-07-15T05:08:54;13.30;99.90
55083;DHT22;40978;52.850;6.506;2022-07-15T05:11:19;13.30;99.90
55083;DHT22;40978;52.850;6.506;2022-07-15T05:13:45;13.40;99.90
55083;DHT22;40978;52.850;6.506;2022-07-15T05:16:10;13.30;99.90
55083;DHT22;40978;52.850;6.506;2022-07-15T05:18:36;13.40;99.90
55083;DHT22;40978;52.850;6.506;2022-07-15T05:21:03;13.40;99.90
55083;DHT22;40978;52.850;6.506;2022-07-15T05:23:28;13.40;99.90
55083;DHT22;40978;52.850;6.506;2022-07-15T05:25:54;13.50;99.90
55083;DHT22;40978;52.850;6.506;2022-07-15T05:28:20;13.50;99.90
55083;DHT22;40978;52.850;6.506;2022-07-15T05:30:46;13.50;99.90
55083;DHT22;40978;52.850;6.506;2022-07-15T05:33:14;13.50;99.90
55083;DHT22;40978;52.850;6.506;2022-07-15T05:35:40;13.50;99.90
55083;DHT22;40978;52.850;6.506;2022-07-15T05:38:06;13.60;99.90
55083;DHT22;40978;52.850;6.506;2022-07-15T05:40:32;13.60;99.90
55083;DHT22;40978;52.850;6.506;2022-07-15T05:42:59;13.70;99.90
55083;DHT22;40978;52.850;6.506;2022-07-15T05:45:25;13.70;99.90
55083;DHT22;40978;52.850;6.506;2022-07-15T05:47:51;13.80;99.90
55083;DHT22;40978;52.850;6.506;2022-07-15T05:50:17;13.80;99.90
55083;DHT22;40978;52.850;6.506;2022-07-15T05:52:43;13.80;99.90
55083;DHT22;40978;52.850;6.506;2022-07-15T05:55:10;13.90;99.90
55083;DHT22;40978;52.850;6.506;2022-07-15T05:57:36;13.90;99.90
55083;DHT22;40978;52.850;6.506;2022-07-15T06:00:02;13.90;99.90
55083;DHT22;40978;52.850;6.506;2022-07-15T06:02:28;13.90;99.90
55083;DHT22;40978;52.850;6.506;2022-07-15T06:04:56;14.00;99.90
55083;DHT22;40978;52.850;6.506;2022-07-15T06:07:22;14.10;99.90
55083;DHT22;40978;52.850;6.506;2022-07-15T06:09:48;14.30;99.90
55083;DHT22;40978;52.850;6.506;2022-07-15T06:12:16;14.40;99.90
55083;DHT22;40978;52.850;6.506;2022-07-15T06:14:42;14.60;99.90
55083;DHT22;40978;52.850;6.506;2022-07-15T06:17:08;14.70;99.90
55083;DHT22;40978;52.850;6.506;2022-07-15T06:19:34;14.90;99.90
55083;DHT22;40978;52.850;6.506;2022-07-15T06:22:00;15.10;99.90
55083;DHT22;40978;52.850;6.506;2022-07-15T06:24:25;15.20;99.90
55083;DHT22;40978;52.850;6.506;2022-07-15T06:26:51;15.30;99.90
55083;DHT22;40978;52.850;6.506;2022-07-15T06:29:17;15.50;99.90
55083;DHT22;40978;52.850;6.506;2022-07-15T06:31:43;15.60;99.90
55083;DHT22;40978;52.850;6.506;2022-07-15T06:34:08;15.70;99.90
55083;DHT22;40978;52.850;6.506;2022-07-15T06:36:34;15.80;99.90
55083;DHT22;40978;52.850;6.506;2022-07-15T06:39:00;15.90;99.90
55083;DHT22;40978;52.850;6.506;2022-07-15T06:41:26;16.00;99.90
55083;DHT22;40978;52.850;6.506;2022-07-15T06:43:52;16.20;99.90
55083;DHT22;40978;52.850;6.506;2022-07-15T06:46:17;16.30;99.90
55083;DHT22;40978;52.850;6.506;2022-07-15T06:48:43;16.40;99.90
55083;DHT22;40978;52.850;6.506;2022-07-15T06:51:09;16.50;99.90
55083;DHT22;40978;52.850;6.506;2022-07-15T06:53:35;16.60;99.90
55083;DHT22;40978;52.850;6.506;2022-07-15T06:56:01;16.80;99.90
55083;DHT22;40978;52.850;6.506;2022-07-15T06:58:27;16.90;99.90
55083;DHT22;40978;52.850;6.506;2022-07-15T07:00:53;17.00;99.90
55083;DHT22;40978;52.850;6.506;2022-07-15T07:03:19;17.00;99.90
55083;DHT22;40978;52.850;6.506;2022-07-15T07:05:44;17.10;99.90
55083;DHT22;40978;52.850;6.506;2022-07-15T07:08:10;17.20;99.90
55083;DHT22;40978;52.850;6.506;2022-07-15T07:10:36;17.30;99.90
55083;DHT22;40978;52.850;6.506;2022-07-15T07:13:01;17.40;99.90
55083;DHT22;40978;52.850;6.506;2022-07-15T07:15:27;17.40;99.90
55083;DHT22;40978;52.850;6.506;2022-07-15T07:17:53;17.50;99.90
55083;DHT22;40978;52.850;6.506;2022-07-15T07:20:19;17.60;99.90
55083;DHT22;40978;52.850;6.506;2022-07-15T07:22:45;17.70;99.90
55083;DHT22;40978;52.850;6.506;2022-07-15T07:25:10;17.80;99.90
55083;DHT22;40978;52.850;6.506;2022-07-15T07:27:36;17.90;99.90
55083;DHT22;40978;52.850;6.506;2022-07-15T07:30:03;18.00;99.90
55083;DHT22;40978;52.850;6.506;2022-07-15T07:32:30;18.20;99.90
55083;DHT22;40978;52.850;6.506;2022-07-15T07:34:56;18.30;99.90
55083;DHT22;40978;52.850;6.506;2022-07-15T07:37:22;18.50;99.70
55083;DHT22;40978;52.850;6.506;2022-07-15T07:39:48;18.60;99.20
55083;DHT22;40978;52.850;6.506;2022-07-15T07:42:15;18.80;98.40
55083;DHT22;40978;52.850;6.506;2022-07-15T07:44:41;19.00;97.50
55083;DHT22;40978;52.850;6.506;2022-07-15T07:47:08;19.00;95.90
55083;DHT22;40978;52.850;6.506;2022-07-15T07:49:34;19.00;95.40
55083;DHT22;40978;52.850;6.506;2022-07-15T07:51:59;18.90;95.20
55083;DHT22;40978;52.850;6.506;2022-07-15T07:54:25;18.90;93.90
55083;DHT22;40978;52.850;6.506;2022-07-15T07:56:51;19.00;94.10
55083;DHT22;40978;52.850;6.506;2022-07-15T07:59:17;19.10;93.50
55083;DHT22;40978;52.850;6.506;2022-07-15T08:01:43;19.30;94.50
55083;DHT22;40978;52.850;6.506;2022-07-15T08:04:09;19.50;94.10
55083;DHT22;40978;52.850;6.506;2022-07-15T08:06:36;19.80;94.50
55083;DHT22;40978;52.850;6.506;2022-07-15T08:09:04;20.00;94.50
55083;DHT22;40978;52.850;6.506;2022-07-15T08:11:30;20.60;93.60
55083;DHT22;40978;52.850;6.506;2022-07-15T08:13:55;20.70;91.50
55083;DHT22;40978;52.850;6.506;2022-07-15T08:16:21;20.60;90.80
55083;DHT22;40978;52.850;6.506;2022-07-15T08:18:47;20.50;88.10
55083;DHT22;40978;52.850;6.506;2022-07-15T08:21:12;20.40;89.30
55083;DHT22;40978;52.850;6.506;2022-07-15T08:23:40;20.60;89.70
55083;DHT22;40978;52.850;6.506;2022-07-15T08:26:06;21.10;89.80
55083;DHT22;40978;52.850;6.506;2022-07-15T08:28:33;21.90;89.40
55083;DHT22;40978;52.850;6.506;2022-07-15T08:30:59;22.40;86.40
55083;DHT22;40978;52.850;6.506;2022-07-15T08:33:25;22.60;83.10
55083;DHT22;40978;52.850;6.506;2022-07-15T08:35:50;22.40;80.40
55083;DHT22;40978;52.850;6.506;2022-07-15T08:38:16;22.30;76.90
55083;DHT22;40978;52.850;6.506;2022-07-15T08:40:42;22.50;77.20
55083;DHT22;40978;52.850;6.506;2022-07-15T08:43:11;22.70;75.60
55083;DHT22;40978;52.850;6.506;2022-07-15T08:45:38;22.90;77.20
55083;DHT22;40978;52.850;6.506;2022-07-15T08:48:05;22.90;73.10
55083;DHT22;40978;52.850;6.506;2022-07-15T08:50:32;22.90;73.40
55083;DHT22;40978;52.850;6.506;2022-07-15T08:52:58;23.00;72.70
55083;DHT22;40978;52.850;6.506;2022-07-15T08:55:24;22.80;70.80
55083;DHT22;40978;52.850;6.506;2022-07-15T08:57:51;22.90;72.10
55083;DHT22;40978;52.850;6.506;2022-07-15T09:00:19;23.30;70.20
55083;DHT22;40978;52.850;6.506;2022-07-15T09:02:45;23.50;69.20
55083;DHT22;40978;52.850;6.506;2022-07-15T09:08:09;22.60;65.40
55083;DHT22;40978;52.850;6.506;2022-07-15T09:10:53;22.00;68.40
55083;DHT22;40978;52.850;6.506;2022-07-15T09:15:48;22.40;69.70
55083;DHT22;40978;52.850;6.506;2022-07-15T09:18:19;22.80;69.90
55083;DHT22;40978;52.850;6.506;2022-07-15T09:20:46;22.90;66.90
55083;DHT22;40978;52.850;6.506;2022-07-15T09:23:16;23.10;68.40
55083;DHT22;40978;52.850;6.506;2022-07-15T09:25:48;23.30;64.80
55083;DHT22;40978;52.850;6.506;2022-07-15T09:28:15;23.50;64.80
55083;DHT22;40978;52.850;6.506;2022-07-15T09:30:44;23.70;65.60
55083;DHT22;40978;52.850;6.506;2022-07-15T09:33:31;23.70;63.60
55083;DHT22;40978;52.850;6.506;2022-07-15T09:36:30;23.30;64.60
55083;DHT22;40978;52.850;6.506;2022-07-15T09:39:03;22.80;62.70
55083;DHT22;40978;52.850;6.506;2022-07-15T09:41:38;22.40;65.20
55083;DHT22;40978;52.850;6.506;2022-07-15T09:44:05;22.10;66.70
55083;DHT22;40978;52.850;6.506;2022-07-15T09:49:10;21.50;68.90
55083;DHT22;40978;52.850;6.506;2022-07-15T09:51:45;21.40;69.10
55083;DHT22;40978;52.850;6.506;2022-07-15T09:54:11;21.30;68.30
55083;DHT22;40978;52.850;6.506;2022-07-15T09:56:38;21.30;71.10
55083;DHT22;40978;52.850;6.506;2022-07-15T09:59:04;21.50;71.50
55083;DHT22;40978;52.850;6.506;2022-07-15T10:01:30;21.60;70.20
55083;DHT22;40978;52.850;6.506;2022-07-15T10:03:56;21.40;68.80
55083;DHT22;40978;52.850;6.506;2022-07-15T10:06:25;21.50;69.60
55083;DHT22;40978;52.850;6.506;2022-07-15T10:08:53;21.90;70.40
55083;DHT22;40978;52.850;6.506;2022-07-15T10:11:19;22.50;69.20
55083;DHT22;40978;52.850;6.506;2022-07-15T10:14:01;23.10;68.50
55083;DHT22;40978;52.850;6.506;2022-07-15T10:19:55;23.90;61.20
55083;DHT22;40978;52.850;6.506;2022-07-15T10:30:06;23.00;65.00
55083;DHT22;40978;52.850;6.506;2022-07-15T10:38:29;21.80;68.10
55083;DHT22;40978;52.850;6.506;2022-07-15T10:54:03;24.00;65.20
55083;DHT22;40978;52.850;6.506;2022-07-15T10:56:31;24.40;63.50
55083;DHT22;40978;52.850;6.506;2022-07-15T11:01:34;24.60;61.00
55083;DHT22;40978;52.850;6.506;2022-07-15T11:04:20;24.50;60.10
55083;DHT22;40978;52.850;6.506;2022-07-15T11:09:57;24.00;59.20
55083;DHT22;40978;52.850;6.506;2022-07-15T11:15:17;23.30;61.50
55083;DHT22;40978;52.850;6.506;2022-07-15T11:17:45;22.90;63.00
55083;DHT22;40978;52.850;6.506;2022-07-15T11:20:30;22.50;64.00
55083;DHT22;40978;52.850;6.506;2022-07-15T11:22:58;22.10;64.50
55083;DHT22;40978;52.850;6.506;2022-07-15T11:25:35;21.80;65.50
55083;DHT22;40978;52.850;6.506;2022-07-15T11:33:03;21.70;68.80
55083;DHT22;40978;52.850;6.506;2022-07-15T11:35:29;22.10;68.70
55083;DHT22;40978;52.850;6.506;2022-07-15T11:38:01;22.30;68.30
55083;DHT22;40978;52.850;6.506;2022-07-15T11:40:29;22.40;66.60
55083;DHT22;40978;52.850;6.506;2022-07-15T11:43:19;22.10;66.40
55083;DHT22;40978;52.850;6.506;2022-07-15T11:46:05;21.60;67.40
55083;DHT22;40978;52.850;6.506;2022-07-15T11:48:38;21.40;68.50
55083;DHT22;40978;52.850;6.506;2022-07-15T11:51:05;21.10;69.30
55083;DHT22;40978;52.850;6.506;2022-07-15T11:53:40;20.80;69.60
55083;DHT22;40978;52.850;6.506;2022-07-15T11:56:07;20.70;70.50
55083;DHT22;40978;52.850;6.506;2022-07-15T11:58:39;20.60;70.90
55083;DHT22;40978;52.850;6.506;2022-07-15T12:01:10;20.70;71.60
55083;DHT22;40978;52.850;6.506;2022-07-15T12:03:42;20.80;71.20
55083;DHT22;40978;52.850;6.506;2022-07-15T12:06:20;20.80;71.30
55083;DHT22;40978;52.850;6.506;2022-07-15T12:08:51;20.90;72.10
55083;DHT22;40978;52.850;6.506;2022-07-15T12:11:32;21.00;71.90
55083;DHT22;40978;52.850;6.506;2022-07-15T12:16:26;21.10;72.10
55083;DHT22;40978;52.850;6.506;2022-07-15T12:18:55;21.20;71.00
55083;DHT22;40978;52.850;6.506;2022-07-15T12:21:22;21.20;70.60
55083;DHT22;40978;52.850;6.506;2022-07-15T12:26:36;22.40;70.10
55083;DHT22;40978;52.850;6.506;2022-07-15T12:29:05;22.80;70.10
55083;DHT22;40978;52.850;6.506;2022-07-15T12:31:33;22.90;67.10
55083;DHT22;40978;52.850;6.506;2022-07-15T12:33:59;22.90;65.90
55083;DHT22;40978;52.850;6.506;2022-07-15T12:36:28;22.70;66.10
55083;DHT22;40978;52.850;6.506;2022-07-15T12:39:21;22.60;67.50
55083;DHT22;40978;52.850;6.506;2022-07-15T12:42:04;22.40;67.20
55083;DHT22;40978;52.850;6.506;2022-07-15T12:44:31;22.40;66.20
55083;DHT22;40978;52.850;6.506;2022-07-15T12:47:02;22.40;66.70
55083;DHT22;40978;52.850;6.506;2022-07-15T12:54:43;22.30;64.10
55083;DHT22;40978;52.850;6.506;2022-07-15T12:57:42;22.20;64.70
55083;DHT22;40978;52.850;6.506;2022-07-15T13:00:13;22.20;65.70
55083;DHT22;40978;52.850;6.506;2022-07-15T13:05:51;22.10;65.10
55083;DHT22;40978;52.850;6.506;2022-07-15T13:08:24;22.20;67.70
55083;DHT22;40978;52.850;6.506;2022-07-15T13:10:52;22.40;66.60
55083;DHT22;40978;52.850;6.506;2022-07-15T13:13:21;22.50;66.40
55083;DHT22;40978;52.850;6.506;2022-07-15T13:15:47;22.80;66.40
55083;DHT22;40978;52.850;6.506;2022-07-15T13:18:14;23.30;66.50
55083;DHT22;40978;52.850;6.506;2022-07-15T13:20:40;23.60;64.20
55083;DHT22;40978;52.850;6.506;2022-07-15T13:23:06;23.50;63.00
55083;DHT22;40978;52.850;6.506;2022-07-15T13:25:33;23.20;63.10
55083;DHT22;40978;52.850;6.506;2022-07-15T13:28:02;22.80;63.50
55083;DHT22;40978;52.850;6.506;2022-07-15T13:30:28;22.40;64.30
55083;DHT22;40978;52.850;6.506;2022-07-15T13:32:54;22.10;64.20
55083;DHT22;40978;52.850;6.506;2022-07-15T13:35:20;21.70;65.30
55083;DHT22;40978;52.850;6.506;2022-07-15T13:37:45;21.50;66.20
55083;DHT22;40978;52.850;6.506;2022-07-15T13:40:13;21.30;67.00
55083;DHT22;40978;52.850;6.506;2022-07-15T13:42:39;21.20;68.80
55083;DHT22;40978;52.850;6.506;2022-07-15T13:45:07;21.20;68.90
55083;DHT22;40978;52.850;6.506;2022-07-15T13:47:33;21.20;68.70
55083;DHT22;40978;52.850;6.506;2022-07-15T13:49:59;21.20;68.60
55083;DHT22;40978;52.850;6.506;2022-07-15T13:52:45;21.10;68.40
55083;DHT22;40978;52.850;6.506;2022-07-15T13:55:12;21.00;68.80
55083;DHT22;40978;52.850;6.506;2022-07-15T13:57:38;21.00;68.70
55083;DHT22;40978;52.850;6.506;2022-07-15T14:00:07;21.00;68.90
55083;DHT22;40978;52.850;6.506;2022-07-15T14:02:34;21.00;69.70
55083;DHT22;40978;52.850;6.506;2022-07-15T14:04:59;20.90;70.80
55083;DHT22;40978;52.850;6.506;2022-07-15T14:07:25;20.90;71.50
55083;DHT22;40978;52.850;6.506;2022-07-15T14:09:51;20.90;71.90
55083;DHT22;40978;52.850;6.506;2022-07-15T14:12:17;20.80;71.90
55083;DHT22;40978;52.850;6.506;2022-07-15T14:14:43;20.80;71.40
55083;DHT22;40978;52.850;6.506;2022-07-15T14:17:09;20.70;71.50
55083;DHT22;40978;52.850;6.506;2022-07-15T14:19:34;20.80;72.90
55083;DHT22;40978;52.850;6.506;2022-07-15T14:22:00;21.00;73.70
55083;DHT22;40978;52.850;6.506;2022-07-15T14:24:26;21.20;71.10
55083;DHT22;40978;52.850;6.506;2022-07-15T14:26:51;21.40;70.60
55083;DHT22;40978;52.850;6.506;2022-07-15T14:29:17;21.70;69.80
55083;DHT22;40978;52.850;6.506;2022-07-15T14:31:43;21.80;68.70
55083;DHT22;40978;52.850;6.506;2022-07-15T14:34:09;21.90;69.10
55083;DHT22;40978;52.850;6.506;2022-07-15T14:36:34;22.20;70.60
55083;DHT22;40978;52.850;6.506;2022-07-15T14:39:00;22.40;70.20
55083;DHT22;40978;52.850;6.506;2022-07-15T14:41:26;22.60;68.60
55083;DHT22;40978;52.850;6.506;2022-07-15T14:43:52;22.70;67.60
55083;DHT22;40978;52.850;6.506;2022-07-15T14:46:17;22.70;67.70
55083;DHT22;40978;52.850;6.506;2022-07-15T14:48:43;22.60;67.50
55083;DHT22;40978;52.850;6.506;2022-07-15T14:51:09;22.50;66.90
55083;DHT22;40978;52.850;6.506;2022-07-15T14:53:34;22.50;69.30
55083;DHT22;40978;52.850;6.506;2022-07-15T14:56:00;22.50;68.00
55083;DHT22;40978;52.850;6.506;2022-07-15T14:58:26;22.60;68.20
55083;DHT22;40978;52.850;6.506;2022-07-15T15:00:52;22.60;69.00
55083;DHT22;40978;52.850;6.506;2022-07-15T15:03:17;22.50;69.50
55083;DHT22;40978;52.850;6.506;2022-07-15T15:05:43;22.30;69.00
55083;DHT22;40978;52.850;6.506;2022-07-15T15:08:09;22.10;68.70
55083;DHT22;40978;52.850;6.506;2022-07-15T15:10:35;22.00;70.30
55083;DHT22;40978;52.850;6.506;2022-07-15T15:13:00;21.90;70.10
55083;DHT22;40978;52.850;6.506;2022-07-15T15:15:26;21.80;71.20
55083;DHT22;40978;52.850;6.506;2022-07-15T15:17:52;21.80;71.90
55083;DHT22;40978;52.850;6.506;2022-07-15T15:20:18;21.80;73.00
55083;DHT22;40978;52.850;6.506;2022-07-15T15:22:44;22.00;72.20
55083;DHT22;40978;52.850;6.506;2022-07-15T15:25:11;22.10;71.40
55083;DHT22;40978;52.850;6.506;2022-07-15T15:27:38;22.00;69.70
55083;DHT22;40978;52.850;6.506;2022-07-15T15:30:05;21.90;69.70
55083;DHT22;40978;52.850;6.506;2022-07-15T15:32:31;21.70;69.60
55083;DHT22;40978;52.850;6.506;2022-07-15T15:34:57;21.60;70.30
55083;DHT22;40978;52.850;6.506;2022-07-15T15:37:23;21.60;70.60
55083;DHT22;40978;52.850;6.506;2022-07-15T15:39:49;21.50;70.70
55083;DHT22;40978;52.850;6.506;2022-07-15T15:42:15;21.60;71.60
55083;DHT22;40978;52.850;6.506;2022-07-15T15:44:41;21.70;71.30
55083;DHT22;40978;52.850;6.506;2022-07-15T15:47:07;21.80;70.10
55083;DHT22;40978;52.850;6.506;2022-07-15T15:49:34;21.80;69.50
55083;DHT22;40978;52.850;6.506;2022-07-15T15:52:05;21.80;70.50
55083;DHT22;40978;52.850;6.506;2022-07-15T15:54:31;21.80;70.40
55083;DHT22;40978;52.850;6.506;2022-07-15T15:56:57;21.70;70.00
55083;DHT22;40978;52.850;6.506;2022-07-15T15:59:23;21.70;70.80
55083;DHT22;40978;52.850;6.506;2022-07-15T16:01:48;21.50;70.20
55083;DHT22;40978;52.850;6.506;2022-07-15T16:04:14;21.50;71.50
55083;DHT22;40978;52.850;6.506;2022-07-15T16:06:40;21.40;71.10
55083;DHT22;40978;52.850;6.506;2022-07-15T16:09:06;21.40;72.00
55083;DHT22;40978;52.850;6.506;2022-07-15T16:11:32;21.40;72.50
55083;DHT22;40978;52.850;6.506;2022-07-15T16:13:58;21.40;72.90
55083;DHT22;40978;52.850;6.506;2022-07-15T16:16:23;21.40;72.40
55083;DHT22;40978;52.850;6.506;2022-07-15T16:18:49;21.50;72.50
55083;DHT22;40978;52.850;6.506;2022-07-15T16:21:14;21.50;71.60
55083;DHT22;40978;52.850;6.506;2022-07-15T16:24:00;21.50;72.10
55083;DHT22;40978;52.850;6.506;2022-07-15T16:26:26;21.50;72.80
55083;DHT22;40978;52.850;6.506;2022-07-15T16:28:52;21.60;72.50
55083;DHT22;40978;52.850;6.506;2022-07-15T16:31:17;21.70;71.80
55083;DHT22;40978;52.850;6.506;2022-07-15T16:33:43;21.70;72.00
55083;DHT22;40978;52.850;6.506;2022-07-15T16:36:09;21.60;71.10